createdAt,value
2022-10-17T00:00:48.389Z,11.60
2022-10-17T00:04:15.666Z,11.61
2022-10-17T00:07:42.473Z,11.62
2022-10-17T00:11:14.002Z,11.64
2022-10-17T00:14:41.227Z,11.66
2022-10-17T00:18:07.971Z,11.66
2022-10-17T00:21:35.140Z,11.67
2022-10-17T00:25:02.280Z,11.68
2022-10-17T00:28:29.365Z,11.71
2022-10-17T00:31:59.110Z,11.71
2022-10-17T00:35:27.096Z,11.70
2022-10-17T00:38:57.669Z,11.63
2022-10-17T00:42:26.103Z,11.60
2022-10-17T00:45:52.751Z,11.55
2022-10-17T00:49:20.638Z,11.52
2022-10-17T00:52:48.593Z,11.50
2022-10-17T00:56:17.087Z,11.46
2022-10-17T00:59:48.949Z,11.46
2022-10-17T01:03:16.759Z,11.47
2022-10-17T01:06:44.037Z,11.49
2022-10-17T01:10:12.521Z,11.52
2022-10-17T01:13:48.875Z,11.55
2022-10-17T01:17:27.047Z,11.57
2022-10-17T01:21:51.662Z,11.58
2022-10-17T01:25:30.924Z,11.58
2022-10-17T01:29:27.542Z,11.58
2022-10-17T01:33:00.269Z,11.54
2022-10-17T01:36:39.479Z,11.49
2022-10-17T01:40:13.525Z,11.44
2022-10-17T01:43:49.370Z,11.39
2022-10-17T01:47:21.502Z,11.37
2022-10-17T01:50:54.104Z,11.37
2022-10-17T01:54:26.607Z,11.39
2022-10-17T01:57:57.310Z,11.43
2022-10-17T02:01:26.148Z,11.46
2022-10-17T02:04:57.000Z,11.52
2022-10-17T02:08:44.608Z,11.58
2022-10-17T02:12:40.445Z,11.63
2022-10-17T02:16:22.828Z,11.71
2022-10-17T02:19:59.298Z,11.76
2022-10-17T02:23:41.879Z,11.81
2022-10-17T02:27:17.702Z,11.86
2022-10-17T02:30:52.745Z,11.88
2022-10-17T02:34:26.134Z,11.89
2022-10-17T02:37:55.336Z,11.88
2022-10-17T02:41:26.137Z,11.88
2022-10-17T02:44:54.826Z,11.88
2022-10-17T02:48:28.751Z,11.86
2022-10-17T02:52:03.962Z,11.87
2022-10-17T02:55:35.634Z,11.89
2022-10-17T02:59:06.806Z,11.92
2022-10-17T03:02:42.815Z,11.96
2022-10-17T03:06:11.360Z,12.02
2022-10-17T03:09:39.682Z,12.09
2022-10-17T03:13:06.487Z,12.18
2022-10-17T03:16:35.481Z,12.25
2022-10-17T03:20:04.575Z,12.32
2022-10-17T03:23:32.193Z,12.41
2022-10-17T03:27:03.301Z,12.49
2022-10-17T03:30:30.712Z,12.54
2022-10-17T03:33:58.592Z,12.59
2022-10-17T03:37:25.442Z,12.62
2022-10-17T03:40:59.303Z,12.65
2022-10-17T03:44:26.767Z,12.67
2022-10-17T03:47:53.726Z,12.67
2022-10-17T03:51:21.146Z,12.66
2022-10-17T03:54:53.256Z,12.58
2022-10-17T03:58:20.259Z,12.64
2022-10-17T04:01:47.358Z,12.64
2022-10-17T04:05:14.716Z,12.67
2022-10-17T04:08:43.015Z,12.69
2022-10-17T04:12:17.269Z,12.72
2022-10-17T04:15:44.544Z,12.77
2022-10-17T04:19:15.132Z,12.81
2022-10-17T04:22:44.937Z,12.86
2022-10-17T04:26:12.695Z,12.90
2022-10-17T04:29:39.480Z,12.92
2022-10-17T04:33:12.387Z,12.92
2022-10-17T04:36:40.175Z,12.94
2022-10-17T04:40:10.135Z,12.92
2022-10-17T04:43:39.291Z,12.89
2022-10-17T04:47:09.638Z,12.86
2022-10-17T04:50:38.576Z,12.81
2022-10-17T04:54:29.683Z,12.76
2022-10-17T04:58:05.536Z,12.72
2022-10-17T05:01:32.589Z,12.71
2022-10-17T05:05:00.168Z,12.71
2022-10-17T05:08:27.054Z,12.72
2022-10-17T05:11:53.546Z,12.75
2022-10-17T05:15:19.908Z,12.78
2022-10-17T05:18:53.577Z,12.81
2022-10-17T05:22:20.660Z,12.85
2022-10-17T05:25:47.198Z,12.90
2022-10-17T05:29:13.988Z,12.94
2022-10-17T05:32:45.027Z,12.98
2022-10-17T05:36:12.089Z,12.99
2022-10-17T05:39:41.452Z,12.96
2022-10-17T05:43:09.657Z,12.95
2022-10-17T05:46:36.631Z,12.96
2022-10-17T05:50:04.523Z,12.94
2022-10-17T05:53:42.898Z,12.95
2022-10-17T05:57:15.024Z,12.95
2022-10-17T06:04:19.128Z,13.02
2022-10-17T06:07:46.041Z,13.08
2022-10-17T06:11:14.707Z,13.14
2022-10-17T06:14:41.096Z,13.23
2022-10-17T06:18:07.755Z,13.32
2022-10-17T06:21:36.918Z,13.42
2022-10-17T06:25:12.615Z,13.50
2022-10-17T06:28:39.784Z,13.57
2022-10-17T06:32:09.850Z,13.62
2022-10-17T06:35:40.540Z,13.66
2022-10-17T06:39:07.452Z,13.68
2022-10-17T06:42:40.348Z,13.69
2022-10-17T06:46:11.742Z,13.69
2022-10-17T06:49:51.295Z,13.65
2022-10-17T06:53:42.536Z,13.67
2022-10-17T06:57:30.195Z,13.71
2022-10-17T07:01:17.875Z,13.75
2022-10-17T07:04:48.138Z,13.82
2022-10-17T07:08:17.370Z,13.89
2022-10-17T07:11:48.181Z,13.98
2022-10-17T07:15:20.867Z,14.12
2022-10-17T07:18:53.330Z,14.25
2022-10-17T07:22:24.034Z,14.39
2022-10-17T07:26:00.647Z,14.51
2022-10-17T07:29:33.026Z,14.64
2022-10-17T07:33:08.999Z,14.78
2022-10-17T07:36:38.394Z,14.91
2022-10-17T07:40:11.292Z,15.05
2022-10-17T07:43:43.588Z,15.17
2022-10-17T07:47:10.394Z,15.30
2022-10-17T07:50:38.404Z,15.41
2022-10-17T07:54:06.269Z,15.52
2022-10-17T07:57:32.979Z,15.61
2022-10-17T08:01:04.085Z,15.69
2022-10-17T08:04:31.161Z,15.77
2022-10-17T08:07:58.016Z,15.83
2022-10-17T08:11:25.644Z,15.89
2022-10-17T08:14:52.414Z,15.93
2022-10-17T08:18:22.607Z,15.96
2022-10-17T08:21:50.583Z,16.00
2022-10-17T08:25:18.844Z,16.08
2022-10-17T08:28:48.538Z,16.16
2022-10-17T08:32:15.935Z,16.24
2022-10-17T08:35:42.365Z,16.34
2022-10-17T08:39:09.337Z,16.43
2022-10-17T08:42:52.869Z,16.53
2022-10-17T08:46:22.096Z,16.65
2022-10-17T08:49:53.826Z,16.76
2022-10-17T08:53:24.890Z,16.86
2022-10-17T08:56:54.841Z,16.96
2022-10-17T09:00:23.509Z,17.10
2022-10-17T09:04:03.308Z,17.23
2022-10-17T09:07:37.434Z,17.34
2022-10-17T09:11:12.200Z,17.48
2022-10-17T09:14:56.270Z,17.61
2022-10-17T09:18:28.933Z,17.72
2022-10-17T09:21:59.849Z,17.83
2022-10-17T09:25:27.722Z,17.98
2022-10-17T09:29:01.736Z,18.10
2022-10-17T09:32:30.997Z,18.23
2022-10-17T09:36:07.994Z,18.34
2022-10-17T09:39:35.646Z,18.45
2022-10-17T09:43:07.436Z,18.55
2022-10-17T09:46:38.561Z,18.70
2022-10-17T09:50:10.588Z,18.82
2022-10-17T09:53:43.257Z,18.91
2022-10-17T09:57:12.411Z,19.02
2022-10-17T10:00:42.412Z,19.13
2022-10-17T10:04:14.521Z,19.26
2022-10-17T10:07:41.977Z,19.34
2022-10-17T10:11:14.157Z,19.41
2022-10-17T10:14:45.172Z,19.50
2022-10-17T10:18:37.342Z,19.59
2022-10-17T10:22:07.859Z,19.75
2022-10-17T10:25:36.482Z,19.91
2022-10-17T10:29:07.052Z,20.08
2022-10-17T10:32:37.188Z,20.24
2022-10-17T10:36:07.990Z,20.42
2022-10-17T10:39:40.335Z,20.57
2022-10-17T10:43:23.505Z,20.69
2022-10-17T10:46:50.043Z,20.76
2022-10-17T10:50:29.353Z,20.82
2022-10-17T10:54:03.162Z,20.90
2022-10-17T10:57:34.977Z,20.97
2022-10-17T11:01:13.758Z,21.02
2022-10-17T11:04:47.361Z,21.11
2022-10-17T11:08:22.249Z,21.25
2022-10-17T11:11:55.144Z,21.41
2022-10-17T11:15:26.703Z,21.53
2022-10-17T11:18:58.214Z,21.63
2022-10-17T11:22:36.558Z,21.72
2022-10-17T11:26:08.803Z,21.81
2022-10-17T11:29:38.523Z,21.92
2022-10-17T11:33:07.529Z,22.04
2022-10-17T11:36:38.218Z,22.20
2022-10-17T11:40:14.486Z,22.32
2022-10-17T11:43:47.645Z,22.44
2022-10-17T11:47:24.480Z,22.57
2022-10-17T11:54:48.935Z,22.85
2022-10-17T11:58:30.108Z,22.96
2022-10-17T12:02:03.276Z,23.03
2022-10-17T12:05:41.179Z,23.05
2022-10-17T12:09:17.502Z,23.08
2022-10-17T12:12:44.153Z,23.26
2022-10-17T12:20:33.402Z,23.44
2022-10-17T12:24:00.205Z,23.52
2022-10-17T12:27:40.255Z,23.59
2022-10-17T12:31:12.788Z,23.68
2022-10-17T12:34:40.277Z,23.74
2022-10-17T12:38:29.772Z,23.70
2022-10-17T12:41:59.296Z,23.56
2022-10-17T12:45:51.807Z,23.49
2022-10-17T12:49:40.737Z,23.44
2022-10-17T12:53:18.537Z,23.41
2022-10-17T12:56:48.829Z,23.39
2022-10-17T13:00:22.373Z,23.30
2022-10-17T13:03:49.107Z,23.24
2022-10-17T13:07:21.484Z,23.20
2022-10-17T13:10:52.849Z,23.20
2022-10-17T13:14:25.822Z,23.19
2022-10-17T13:18:03.457Z,23.25
2022-10-17T13:21:32.654Z,23.30
2022-10-17T13:25:10.868Z,23.40
2022-10-17T13:28:39.483Z,23.44
2022-10-17T13:32:08.321Z,23.52
2022-10-17T13:39:52.383Z,23.63
2022-10-17T13:43:21.355Z,23.68
2022-10-17T13:46:49.941Z,23.66
2022-10-17T13:50:43.760Z,23.62
2022-10-17T13:54:35.708Z,23.52
2022-10-17T13:58:18.118Z,23.41
2022-10-17T14:01:48.400Z,23.29
2022-10-17T14:05:19.203Z,23.18
2022-10-17T14:09:01.153Z,23.08
2022-10-17T14:12:28.794Z,22.96
2022-10-17T14:15:58.133Z,22.89
2022-10-17T14:19:29.078Z,22.80
2022-10-17T14:23:17.906Z,22.71
2022-10-17T14:26:52.152Z,22.63
2022-10-17T14:30:57.062Z,22.57
2022-10-17T14:34:31.524Z,22.49
2022-10-17T14:38:03.585Z,22.42
2022-10-17T14:41:43.025Z,22.36
2022-10-17T14:45:18.171Z,22.31
2022-10-17T14:48:54.529Z,22.27
2022-10-17T14:52:34.020Z,22.23
2022-10-17T14:56:02.373Z,22.17
2022-10-17T14:59:52.664Z,22.10
2022-10-17T15:03:19.521Z,22.01
2022-10-17T15:06:46.562Z,21.92
2022-10-17T15:10:33.824Z,21.81
2022-10-17T15:14:00.125Z,21.71
2022-10-17T15:17:28.896Z,21.61
2022-10-17T15:21:05.010Z,21.50
2022-10-17T15:24:33.494Z,21.37
2022-10-17T15:28:02.472Z,21.25
2022-10-17T15:31:31.466Z,21.14
2022-10-17T15:34:58.469Z,21.04
2022-10-17T15:38:26.635Z,20.94
2022-10-17T15:41:53.161Z,20.86
2022-10-17T15:45:22.782Z,20.78
2022-10-17T15:48:51.480Z,20.70
2022-10-17T15:52:18.093Z,20.63
2022-10-17T15:55:46.299Z,20.53
2022-10-17T15:59:18.209Z,20.44
2022-10-17T16:02:45.236Z,20.32
2022-10-17T16:06:14.373Z,20.20
2022-10-17T16:09:42.408Z,20.07
2022-10-17T16:13:17.595Z,19.97
2022-10-17T16:16:44.878Z,19.84
2022-10-17T16:20:17.002Z,19.73
2022-10-17T16:23:44.448Z,19.63
2022-10-17T16:27:14.233Z,19.56
2022-10-17T16:30:47.620Z,19.49
2022-10-17T16:34:18.417Z,19.45
2022-10-17T16:37:49.181Z,19.42
2022-10-17T16:41:25.600Z,19.38
2022-10-17T16:44:54.563Z,19.34
2022-10-17T16:48:30.566Z,19.30
2022-10-17T16:52:03.642Z,19.26
2022-10-17T16:55:39.997Z,19.20
2022-10-17T16:59:12.625Z,19.15
2022-10-17T17:02:45.576Z,19.10
2022-10-17T17:06:17.074Z,19.05
2022-10-17T17:09:46.118Z,19.00
2022-10-17T17:13:24.095Z,18.93
2022-10-17T17:17:00.425Z,18.88
2022-10-17T17:20:32.864Z,18.83
2022-10-17T17:24:14.897Z,18.79
2022-10-17T17:27:53.009Z,18.74
2022-10-17T17:31:36.466Z,18.73
2022-10-17T17:35:05.906Z,18.70
2022-10-17T17:38:34.476Z,18.68
2022-10-17T17:42:01.610Z,18.67
2022-10-17T17:45:30.359Z,18.64
2022-10-17T17:48:58.168Z,18.62
2022-10-17T17:52:25.351Z,18.60
2022-10-17T17:56:02.932Z,18.53
2022-10-17T17:59:33.984Z,18.45
2022-10-17T18:03:04.310Z,18.34
2022-10-17T18:06:35.376Z,18.29
2022-10-17T18:10:05.152Z,18.16
2022-10-17T18:13:37.263Z,18.15
2022-10-17T18:17:04.051Z,18.09
2022-10-17T18:20:37.044Z,18.04
2022-10-17T18:24:05.749Z,18.01
2022-10-17T18:27:32.562Z,17.97
2022-10-17T18:31:05.279Z,17.93
2022-10-17T18:34:32.474Z,17.91
2022-10-17T18:38:01.023Z,17.89
2022-10-17T18:41:29.480Z,17.89
2022-10-17T18:44:56.405Z,17.85
2022-10-17T18:48:24.483Z,17.82
2022-10-17T18:51:51.336Z,17.78
2022-10-17T18:55:22.616Z,17.72
2022-10-17T18:58:49.978Z,17.65
2022-10-17T19:02:17.036Z,17.57
2022-10-17T19:05:45.520Z,17.51
2022-10-17T19:09:15.313Z,17.43
2022-10-17T19:12:45.549Z,17.39
2022-10-17T19:16:19.602Z,17.35
2022-10-17T19:19:51.043Z,17.32
2022-10-17T19:23:18.488Z,17.30
2022-10-17T19:26:47.190Z,17.27
2022-10-17T19:30:17.128Z,17.25
2022-10-17T19:33:49.699Z,17.24
2022-10-17T19:37:18.562Z,17.22
2022-10-17T19:40:45.645Z,17.20
2022-10-17T19:44:14.262Z,17.19
2022-10-17T19:47:41.083Z,17.17
2022-10-17T19:51:19.099Z,17.17
2022-10-17T19:54:51.975Z,17.13
2022-10-17T19:58:23.574Z,17.06
2022-10-17T20:01:51.781Z,16.99
2022-10-17T20:05:20.192Z,16.94
2022-10-17T20:08:49.406Z,16.89
2022-10-17T20:12:16.690Z,16.87
2022-10-17T20:15:55.842Z,16.86
2022-10-17T20:19:29.311Z,16.87
2022-10-17T20:22:58.513Z,16.91
2022-10-17T20:26:39.056Z,16.93
2022-10-17T20:30:13.014Z,16.95
2022-10-17T20:33:43.633Z,16.98
2022-10-17T20:37:11.753Z,16.99
2022-10-17T20:40:42.573Z,17.00
2022-10-17T20:44:13.604Z,17.03
2022-10-17T20:47:47.176Z,17.05
2022-10-17T20:51:16.823Z,17.07
2022-10-17T20:54:44.549Z,17.08
2022-10-17T20:58:12.989Z,17.07
2022-10-17T21:01:39.620Z,17.05
2022-10-17T21:05:10.401Z,17.01
2022-10-17T21:08:37.699Z,16.97
2022-10-17T21:12:05.572Z,16.89
2022-10-17T21:15:35.662Z,16.81
2022-10-17T21:19:03.742Z,16.73
2022-10-17T21:22:34.245Z,16.67
2022-10-17T21:26:07.239Z,16.62
2022-10-17T21:29:33.746Z,16.60
2022-10-17T21:33:00.670Z,16.59
2022-10-17T21:36:29.957Z,16.57
2022-10-17T21:39:56.555Z,16.60
2022-10-17T21:43:24.733Z,16.63
2022-10-17T21:47:14.417Z,16.65
2022-10-17T21:50:48.385Z,16.67
2022-10-17T21:54:18.966Z,16.66
2022-10-17T21:57:45.776Z,16.68
2022-10-17T22:01:16.190Z,16.70
2022-10-17T22:04:54.352Z,16.71
2022-10-17T22:08:21.311Z,16.73
2022-10-17T22:11:54.469Z,16.72
2022-10-17T22:15:21.977Z,16.69
2022-10-17T22:18:51.345Z,16.56
2022-10-17T22:22:18.587Z,16.59
2022-10-17T22:25:54.620Z,16.55
2022-10-17T22:29:22.367Z,16.51
2022-10-17T22:32:48.971Z,16.48
2022-10-17T22:36:16.356Z,16.44
2022-10-17T22:39:43.738Z,16.41
2022-10-17T22:43:10.359Z,16.40
2022-10-17T22:46:37.204Z,16.40
2022-10-17T22:50:04.696Z,16.39
2022-10-17T22:53:31.858Z,16.38
2022-10-17T22:56:58.667Z,16.36
2022-10-17T23:00:25.766Z,16.33
2022-10-17T23:03:53.542Z,16.33
2022-10-17T23:07:22.813Z,16.31
2022-10-17T23:10:50.155Z,16.29
2022-10-17T23:14:17.575Z,16.25
2022-10-17T23:17:44.321Z,16.19
2022-10-17T23:21:11.951Z,16.13
2022-10-17T23:24:39.509Z,16.07
2022-10-17T23:28:09.577Z,16.00
2022-10-17T23:31:36.129Z,15.94
2022-10-17T23:35:02.828Z,15.88
2022-10-17T23:38:30.182Z,15.83
2022-10-17T23:41:56.747Z,15.80
2022-10-17T23:45:23.754Z,15.77
2022-10-17T23:48:50.379Z,15.75
2022-10-17T23:52:17.497Z,15.73
2022-10-17T23:55:44.391Z,15.75
2022-10-17T23:59:11.447Z,15.74
